createdAt,value
2018-09-03T00:02:18.164Z,92.80
2018-09-03T00:04:47.172Z,92.80
2018-09-03T00:07:16.246Z,92.70
2018-09-03T00:09:45.078Z,93.30
2018-09-03T00:12:14.052Z,93.50
2018-09-03T00:14:42.891Z,93.60
2018-09-03T00:17:12.270Z,93.70
2018-09-03T00:19:42.227Z,93.40
2018-09-03T00:22:12.124Z,93.20
2018-09-03T00:24:42.412Z,93.10
2018-09-03T00:27:12.541Z,93.00
2018-09-03T00:29:42.823Z,93.70
2018-09-03T00:32:19.204Z,94.10
2018-09-03T00:34:53.817Z,93.50
2018-09-03T00:39:32.942Z,93.00
2018-09-03T00:42:07.012Z,93.60
2018-09-03T00:44:41.119Z,93.10
2018-09-03T00:47:11.191Z,93.10
2018-09-03T00:49:40.413Z,92.80
2018-09-03T00:52:09.300Z,93.60
2018-09-03T00:54:39.220Z,93.30
2018-09-03T00:57:08.193Z,93.10
2018-09-03T00:59:39.248Z,92.60
2018-09-03T01:02:08.373Z,92.50
2018-09-03T01:04:37.338Z,92.40
2018-09-03T01:07:06.468Z,92.50
2018-09-03T01:09:35.533Z,93.40
2018-09-03T01:12:05.208Z,93.90
2018-09-03T01:14:34.408Z,94.40
2018-09-03T01:17:03.244Z,94.00
2018-09-03T01:19:32.359Z,94.10
2018-09-03T01:22:01.668Z,94.10
2018-09-03T01:24:30.540Z,93.60
2018-09-03T01:26:59.493Z,93.10
2018-09-03T01:29:28.502Z,93.00
2018-09-03T01:32:00.644Z,92.80
2018-09-03T01:34:30.542Z,93.00
2018-09-03T01:37:02.952Z,93.00
2018-09-03T01:39:34.167Z,92.90
2018-09-03T01:42:05.707Z,92.90
2018-09-03T01:44:35.961Z,93.10
2018-09-03T01:47:07.574Z,93.20
2018-09-03T01:49:37.669Z,93.20
2018-09-03T01:52:09.986Z,92.90
2018-09-03T01:54:43.315Z,93.90
2018-09-03T01:57:14.150Z,93.30
2018-09-03T01:59:47.344Z,93.60
2018-09-03T02:02:17.873Z,93.20
2018-09-03T02:04:50.063Z,93.10
2018-09-03T02:07:23.578Z,93.60
2018-09-03T02:09:55.662Z,93.60
2018-09-03T02:12:29.633Z,93.10
2018-09-03T02:15:00.694Z,92.80
2018-09-03T02:17:32.731Z,92.70
2018-09-03T02:20:03.746Z,92.50
2018-09-03T02:22:36.672Z,92.50
2018-09-03T02:25:08.472Z,93.20
2018-09-03T02:27:39.161Z,93.20
2018-09-03T02:30:09.811Z,92.80
2018-09-03T02:32:40.769Z,92.90
2018-09-03T02:35:12.105Z,93.10
2018-09-03T02:37:42.653Z,92.80
2018-09-03T02:40:15.901Z,93.30
2018-09-03T02:42:48.505Z,93.60
2018-09-03T02:45:19.219Z,93.10
2018-09-03T02:47:50.020Z,92.80
2018-09-03T02:50:19.675Z,93.00
2018-09-03T02:55:28.987Z,93.20
2018-09-03T02:57:59.857Z,92.90
2018-09-03T03:03:08.020Z,92.70
2018-09-03T03:05:40.110Z,92.50
2018-09-03T03:08:12.664Z,92.60
2018-09-03T03:10:44.177Z,93.10
2018-09-03T03:13:16.729Z,93.50
2018-09-03T03:15:47.898Z,92.70
2018-09-03T03:18:23.268Z,92.50
2018-09-03T03:21:06.261Z,92.50
2018-09-03T03:23:41.194Z,92.70
2018-09-03T03:26:22.857Z,93.30
2018-09-03T03:28:59.321Z,93.30
2018-09-03T03:31:33.888Z,92.90
2018-09-03T03:34:09.295Z,93.10
2018-09-03T03:36:48.507Z,93.00
2018-09-03T03:39:26.165Z,93.30
2018-09-03T03:42:02.593Z,93.10
2018-09-03T03:44:39.992Z,92.80
2018-09-03T03:47:13.691Z,92.80
2018-09-03T03:49:48.314Z,92.60
2018-09-03T03:52:26.069Z,92.70
2018-09-03T03:55:04.026Z,93.40
2018-09-03T03:57:41.824Z,93.00
2018-09-03T04:00:16.686Z,92.90
2018-09-03T04:02:50.765Z,92.70
2018-09-03T04:05:32.558Z,92.60
2018-09-03T04:08:13.799Z,93.20
2018-09-03T04:10:49.341Z,93.10
2018-09-03T04:13:24.438Z,92.70
2018-09-03T04:18:48.605Z,92.80
2018-09-03T04:21:26.748Z,93.10
2018-09-03T04:29:14.088Z,93.10
2018-09-03T04:31:49.620Z,94.30
2018-09-03T04:34:32.537Z,94.10
2018-09-03T04:37:12.861Z,93.60
2018-09-03T04:39:54.044Z,93.30
2018-09-03T04:42:34.041Z,93.10
2018-09-03T04:45:09.122Z,93.00
2018-09-03T04:47:42.101Z,93.20
2018-09-03T04:50:26.348Z,93.20
2018-09-03T04:53:07.843Z,94.00
2018-09-03T04:55:43.670Z,94.00
2018-09-03T04:58:21.294Z,93.70
2018-09-03T05:00:58.164Z,93.90
2018-09-03T05:03:37.064Z,94.90
2018-09-03T05:06:17.908Z,94.90
2018-09-03T05:08:55.990Z,94.40
2018-09-03T05:11:32.274Z,94.30
2018-09-03T05:14:08.200Z,94.20
2018-09-03T05:16:52.735Z,93.80
2018-09-03T05:19:36.634Z,93.60
2018-09-03T05:22:17.599Z,93.50
2018-09-03T05:24:52.508Z,93.40
2018-09-03T05:27:33.163Z,93.10
2018-09-03T05:30:17.175Z,93.70
2018-09-03T05:32:50.907Z,94.60
2018-09-03T05:35:24.808Z,94.40
2018-09-03T05:38:05.555Z,94.10
2018-09-03T05:40:42.907Z,93.40
2018-09-03T05:43:21.611Z,94.10
2018-09-03T05:45:59.540Z,93.70
2018-09-03T05:48:38.858Z,93.40
2018-09-03T05:51:13.207Z,93.20
2018-09-03T05:53:52.102Z,93.60
2018-09-03T05:56:33.493Z,92.40
2018-09-03T05:59:15.762Z,92.80
2018-09-03T06:01:58.810Z,92.90
2018-09-03T06:04:34.973Z,92.40
2018-09-03T06:10:00.662Z,92.60
2018-09-03T06:12:41.837Z,92.90
2018-09-03T06:18:07.547Z,92.70
2018-09-03T06:20:58.166Z,93.30
2018-09-03T06:28:56.733Z,93.20
2018-09-03T06:31:40.484Z,93.80
2018-09-03T06:34:22.203Z,94.40
2018-09-03T06:37:05.097Z,94.40
2018-09-03T06:39:50.245Z,93.60
2018-09-03T06:42:31.810Z,92.90
2018-09-03T06:45:14.387Z,93.30
2018-09-03T06:47:58.352Z,92.30
2018-09-03T06:53:27.667Z,91.20
2018-09-03T06:56:17.577Z,91.70
2018-09-03T06:59:06.601Z,92.60
2018-09-03T07:01:48.819Z,91.80
2018-09-03T07:04:34.606Z,92.10
2018-09-03T07:07:14.402Z,91.50
2018-09-03T07:09:58.080Z,92.00
2018-09-03T07:12:39.989Z,92.60
2018-09-03T07:15:24.958Z,92.50
2018-09-03T07:18:06.046Z,91.50
2018-09-03T07:20:46.346Z,92.50
2018-09-03T07:23:33.029Z,92.30
2018-09-03T07:26:22.083Z,90.90
2018-09-03T07:29:06.076Z,91.90
2018-09-03T07:31:53.740Z,92.00
2018-09-03T07:34:39.550Z,91.90
2018-09-03T07:37:26.478Z,92.10
2018-09-03T07:40:08.603Z,92.10
2018-09-03T07:42:57.203Z,91.50
2018-09-03T07:45:43.419Z,91.80
2018-09-03T07:48:27.878Z,91.70
2018-09-03T07:51:16.265Z,91.00
2018-09-03T07:54:02.840Z,90.60
2018-09-03T07:56:48.273Z,90.90
2018-09-03T07:59:38.394Z,91.30
2018-09-03T08:02:21.416Z,90.20
2018-09-03T08:05:07.988Z,90.90
2018-09-03T08:07:48.493Z,90.00
2018-09-03T08:10:35.692Z,90.60
2018-09-03T08:13:26.987Z,90.40
2018-09-03T08:19:03.813Z,90.20
2018-09-03T08:21:48.577Z,88.60
2018-09-03T08:24:26.879Z,89.00
2018-09-03T08:27:18.284Z,90.10
2018-09-03T08:30:04.201Z,90.20
2018-09-03T08:32:56.222Z,90.40
2018-09-03T08:35:35.797Z,89.10
2018-09-03T08:38:19.776Z,89.40
2018-09-03T08:40:55.891Z,89.60
2018-09-03T08:43:34.311Z,86.00
2018-09-03T08:46:17.645Z,89.90
2018-09-03T08:48:59.906Z,88.40
2018-09-03T08:54:36.710Z,88.10
2018-09-03T08:57:22.196Z,88.50
2018-09-03T09:02:55.853Z,89.20
2018-09-03T09:05:38.395Z,87.60
2018-09-03T09:08:19.328Z,89.20
2018-09-03T09:10:59.098Z,89.20
2018-09-03T09:13:47.727Z,88.40
2018-09-03T09:19:14.194Z,85.20
2018-09-03T09:21:59.331Z,85.20
2018-09-03T09:24:43.769Z,83.70
2018-09-03T09:27:32.165Z,83.40
2018-09-03T09:30:15.657Z,84.40
2018-09-03T09:33:06.428Z,83.90
2018-09-03T09:35:51.795Z,84.60
2018-09-03T09:41:29.614Z,83.40
2018-09-03T09:44:19.112Z,80.50
2018-09-03T09:47:01.311Z,83.00
2018-09-03T09:49:46.333Z,81.90
2018-09-03T09:52:29.388Z,82.90
2018-09-03T09:55:21.378Z,81.70
2018-09-03T09:58:03.509Z,83.60
2018-09-03T10:00:50.663Z,82.70
2018-09-03T10:03:38.164Z,83.90
2018-09-03T10:06:22.028Z,81.20
2018-09-03T10:09:07.507Z,82.40
2018-09-03T10:11:47.646Z,81.60
2018-09-03T10:14:30.379Z,80.50
2018-09-03T10:17:11.370Z,78.30
2018-09-03T10:19:51.282Z,80.60
2018-09-03T10:22:32.590Z,79.00
2018-09-03T10:25:21.735Z,77.30
2018-09-03T10:30:56.033Z,79.30
2018-09-03T10:33:37.987Z,77.60
2018-09-03T10:36:29.636Z,79.10
2018-09-03T10:39:19.486Z,77.90
2018-09-03T10:41:58.724Z,80.90
2018-09-03T10:44:38.969Z,82.00
2018-09-03T10:47:29.107Z,80.40
2018-09-03T10:50:16.656Z,82.70
2018-09-03T10:55:48.808Z,79.40
2018-09-03T10:58:39.536Z,81.90
2018-09-03T11:01:28.248Z,80.50
2018-09-03T11:04:13.325Z,80.60
2018-09-03T11:06:56.149Z,80.80
2018-09-03T11:12:25.323Z,78.30
2018-09-03T11:15:02.083Z,77.50
2018-09-03T11:17:43.070Z,79.10
2018-09-03T11:20:30.848Z,77.70
2018-09-03T11:23:14.805Z,81.00
2018-09-03T11:28:42.860Z,79.50
2018-09-03T11:31:23.653Z,79.00
2018-09-03T11:34:05.764Z,75.00
2018-09-03T11:36:51.560Z,75.80
2018-09-03T11:39:42.143Z,76.30
2018-09-03T11:42:32.639Z,72.50
2018-09-03T11:45:12.031Z,72.40
2018-09-03T11:47:55.244Z,73.40
2018-09-03T11:50:42.540Z,75.90
2018-09-03T11:53:17.047Z,75.90
2018-09-03T11:55:53.673Z,77.00
2018-09-03T11:58:28.766Z,75.30
2018-09-03T12:01:03.879Z,76.30
2018-09-03T12:03:37.009Z,75.90
2018-09-03T12:06:13.977Z,74.80
2018-09-03T12:08:50.541Z,74.40
2018-09-03T12:11:29.599Z,72.50
2018-09-03T12:14:24.968Z,77.00
2018-09-03T12:17:00.813Z,72.50
2018-09-03T12:19:41.101Z,71.90
2018-09-03T12:22:25.041Z,73.40
2018-09-03T12:25:03.457Z,71.50
2018-09-03T12:27:44.641Z,70.40
2018-09-03T12:30:23.983Z,68.80
2018-09-03T12:33:00.842Z,69.80
2018-09-03T12:35:43.503Z,69.20
2018-09-03T12:38:22.702Z,69.40
2018-09-03T12:41:07.777Z,71.00
2018-09-03T12:43:43.431Z,70.00
2018-09-03T12:49:00.868Z,71.50
2018-09-03T12:51:39.919Z,68.90
2018-09-03T12:54:15.483Z,70.80
2018-09-03T12:56:57.242Z,70.20
2018-09-03T12:59:39.103Z,69.80
2018-09-03T13:02:22.000Z,69.90
2018-09-03T13:04:59.549Z,73.20
2018-09-03T13:07:47.493Z,70.80
2018-09-03T13:13:06.460Z,72.30
2018-09-03T13:15:46.607Z,71.20
2018-09-03T13:18:28.215Z,71.80
2018-09-03T13:21:10.476Z,70.90
2018-09-03T13:23:47.224Z,69.40
2018-09-03T13:26:26.131Z,71.50
2018-09-03T13:29:06.589Z,71.80
2018-09-03T13:31:50.227Z,73.30
2018-09-03T13:34:28.644Z,70.20
2018-09-03T13:39:46.593Z,70.90
2018-09-03T13:42:22.449Z,70.60
2018-09-03T13:47:45.854Z,70.40
2018-09-03T13:50:19.843Z,70.40
2018-09-03T13:52:55.582Z,70.30
2018-09-03T13:55:38.825Z,71.30
2018-09-03T13:58:22.291Z,71.50
2018-09-03T14:01:04.829Z,72.50
2018-09-03T14:03:43.997Z,72.30
2018-09-03T14:06:25.760Z,71.90
2018-09-03T14:09:03.015Z,70.40
2018-09-03T14:11:40.424Z,73.00
2018-09-03T14:14:17.787Z,68.60
2018-09-03T14:16:51.709Z,67.50
2018-09-03T14:19:33.355Z,66.90
2018-09-03T14:22:11.588Z,65.60
2018-09-03T14:24:48.571Z,69.70
2018-09-03T14:27:25.469Z,67.40
2018-09-03T14:30:08.964Z,67.00
2018-09-03T14:32:54.750Z,67.70
2018-09-03T14:35:34.506Z,65.10
2018-09-03T14:38:14.058Z,67.20
2018-09-03T14:40:52.943Z,67.60
2018-09-03T14:43:29.473Z,66.10
2018-09-03T14:46:13.302Z,69.40
2018-09-03T14:48:57.144Z,68.30
2018-09-03T14:51:37.859Z,68.90
2018-09-03T14:54:20.645Z,67.50
2018-09-03T14:56:54.530Z,67.70
2018-09-03T14:59:33.047Z,69.90
2018-09-03T15:02:16.894Z,68.70
2018-09-03T15:04:52.708Z,70.40
2018-09-03T15:07:33.720Z,70.70
2018-09-03T15:10:16.639Z,72.70
2018-09-03T15:13:03.850Z,72.90
2018-09-03T15:15:48.423Z,72.70
2018-09-03T15:18:22.114Z,71.50
2018-09-03T15:20:58.543Z,72.00
2018-09-03T15:23:32.093Z,73.10
2018-09-03T15:26:09.411Z,74.00
2018-09-03T15:28:51.695Z,73.80
2018-09-03T15:31:31.443Z,72.50
2018-09-03T15:34:08.195Z,71.20
2018-09-03T15:36:49.423Z,69.90
2018-09-03T15:39:28.514Z,67.80
2018-09-03T15:42:12.851Z,69.90
2018-09-03T15:44:52.764Z,70.20
2018-09-03T15:47:26.438Z,71.00
2018-09-03T15:55:35.500Z,72.60
2018-09-03T15:58:14.084Z,71.20
2018-09-03T16:00:54.190Z,70.90
2018-09-03T16:03:28.751Z,70.00
2018-09-03T16:08:48.604Z,70.30
2018-09-03T16:11:25.648Z,69.90
2018-09-03T16:16:47.511Z,70.70
2018-09-03T16:19:24.624Z,70.60
2018-09-03T16:22:05.184Z,70.30
2018-09-03T16:24:46.379Z,70.50
2018-09-03T16:27:27.340Z,71.20
2018-09-03T16:30:11.898Z,71.00
2018-09-03T16:32:50.429Z,71.40
2018-09-03T16:35:26.784Z,73.70
2018-09-03T16:38:05.558Z,73.90
2018-09-03T16:40:41.907Z,73.90
2018-09-03T16:46:00.846Z,74.20
2018-09-03T16:48:44.628Z,74.30
2018-09-03T16:51:21.665Z,75.00
2018-09-03T16:53:58.853Z,75.80
2018-09-03T16:56:39.961Z,75.60
2018-09-03T16:59:18.448Z,76.30
2018-09-03T17:01:56.048Z,76.70
2018-09-03T17:04:32.532Z,76.90
2018-09-03T17:07:12.124Z,77.10
2018-09-03T17:09:46.309Z,77.00
2018-09-03T17:12:27.032Z,78.20
2018-09-03T17:17:46.127Z,77.90
2018-09-03T17:20:28.143Z,77.40
2018-09-03T17:23:14.134Z,78.00
2018-09-03T17:25:52.771Z,77.10
2018-09-03T17:28:34.902Z,78.70
2018-09-03T17:31:15.510Z,77.90
2018-09-03T17:33:57.604Z,78.10
2018-09-03T17:36:40.515Z,79.40
2018-09-03T17:39:19.195Z,78.50
2018-09-03T17:41:58.100Z,78.00
2018-09-03T17:44:36.956Z,80.20
2018-09-03T17:47:20.750Z,78.90
2018-09-03T17:55:32.778Z,79.60
2018-09-03T17:58:07.522Z,81.00
2018-09-03T18:00:49.764Z,81.90
2018-09-03T18:03:30.309Z,82.30
2018-09-03T18:06:13.326Z,82.10
2018-09-03T18:08:48.856Z,84.10
2018-09-03T18:11:28.568Z,83.40
2018-09-03T18:14:04.785Z,84.10
2018-09-03T18:16:44.330Z,84.20
2018-09-03T18:19:26.396Z,84.20
2018-09-03T18:22:03.419Z,83.90
2018-09-03T18:24:45.905Z,85.90
2018-09-03T18:27:21.662Z,86.60
2018-09-03T18:30:06.681Z,87.20
2018-09-03T18:40:42.309Z,89.30
2018-09-03T18:43:25.609Z,90.00
2018-09-03T18:46:04.073Z,90.00
2018-09-03T18:48:46.170Z,89.00
2018-09-03T18:51:24.112Z,88.00
2018-09-03T18:54:05.105Z,88.50
2018-09-03T18:56:44.933Z,88.40
2018-09-03T18:59:23.942Z,89.00
2018-09-03T19:02:07.360Z,88.70
2018-09-03T19:04:48.850Z,88.10
2018-09-03T19:07:30.258Z,87.50
2018-09-03T19:10:14.893Z,87.90
2018-09-03T19:12:52.854Z,87.90
2018-09-03T19:18:13.355Z,88.10
2018-09-03T19:20:50.297Z,88.50
2018-09-03T19:23:34.276Z,89.80
2018-09-03T19:26:13.648Z,90.00
2018-09-03T19:28:55.382Z,90.00
2018-09-03T19:31:33.354Z,90.00
2018-09-03T19:34:13.127Z,89.30
2018-09-03T19:36:50.736Z,88.30
2018-09-03T19:39:25.163Z,88.00
2018-09-03T19:42:02.436Z,88.30
2018-09-03T19:44:39.925Z,89.00
2018-09-03T19:50:00.018Z,89.70
2018-09-03T19:52:42.584Z,89.60
2018-09-03T19:55:18.101Z,90.00
2018-09-03T19:57:57.302Z,90.00
2018-09-03T20:00:42.897Z,89.60
2018-09-03T20:03:21.937Z,89.60
2018-09-03T20:08:48.989Z,89.50
2018-09-03T20:11:29.315Z,89.90
2018-09-03T20:16:52.182Z,89.30
2018-09-03T20:19:33.327Z,89.80
2018-09-03T20:22:13.781Z,90.00
2018-09-03T20:24:50.541Z,90.00
2018-09-03T20:27:36.029Z,90.60
2018-09-03T20:32:59.282Z,90.70
2018-09-03T20:35:38.522Z,90.90
2018-09-03T20:38:12.710Z,91.20
2018-09-03T20:40:53.775Z,91.30
2018-09-03T20:46:12.769Z,91.10
2018-09-03T20:48:55.738Z,91.30
2018-09-03T20:51:37.222Z,91.00
2018-09-03T20:54:24.159Z,91.10
2018-09-03T20:59:53.114Z,91.20
2018-09-03T21:02:32.793Z,92.20
2018-09-03T21:05:12.118Z,92.50
2018-09-03T21:07:48.956Z,91.70
2018-09-03T21:10:26.336Z,91.30
2018-09-03T21:13:06.010Z,92.00
2018-09-03T21:15:45.365Z,92.50
2018-09-03T21:18:26.386Z,92.00
2018-09-03T21:21:10.740Z,91.50
2018-09-03T21:23:55.069Z,91.40
2018-09-03T21:26:35.953Z,91.40
2018-09-03T21:29:11.713Z,91.30
2018-09-03T21:31:48.903Z,90.80
2018-09-03T21:34:27.136Z,90.90
2018-09-03T21:37:08.223Z,90.40
2018-09-03T21:39:50.032Z,90.30
2018-09-03T21:42:29.226Z,90.10
2018-09-03T21:45:04.697Z,91.20
2018-09-03T21:47:44.513Z,91.90
2018-09-03T21:50:24.994Z,91.20
2018-09-03T21:53:00.450Z,90.60
2018-09-03T21:55:40.363Z,90.30
2018-09-03T21:58:16.218Z,90.50
2018-09-03T22:00:59.489Z,90.30
2018-09-03T22:03:35.711Z,90.40
2018-09-03T22:06:15.639Z,91.00
2018-09-03T22:11:43.901Z,90.90
2018-09-03T22:14:29.842Z,90.70
2018-09-03T22:17:07.985Z,90.80
2018-09-03T22:22:26.129Z,90.70
2018-09-03T22:25:06.899Z,90.50
2018-09-03T22:27:49.472Z,90.80
2018-09-03T22:30:26.687Z,91.00
2018-09-03T22:38:33.948Z,91.20
2018-09-03T22:41:17.483Z,91.70
2018-09-03T22:46:42.984Z,91.30
2018-09-03T22:49:25.644Z,90.80
2018-09-03T22:52:10.872Z,90.80
2018-09-03T22:54:47.968Z,90.60
2018-09-03T22:57:26.121Z,91.40
2018-09-03T23:00:03.727Z,91.00
2018-09-03T23:02:43.653Z,91.40
2018-09-03T23:05:26.641Z,91.10
2018-09-03T23:08:10.192Z,90.70
2018-09-03T23:10:50.966Z,91.10
2018-09-03T23:13:32.760Z,91.10
2018-09-03T23:16:10.839Z,91.00
2018-09-03T23:18:51.305Z,91.10
2018-09-03T23:21:31.940Z,91.40
2018-09-03T23:24:12.530Z,91.00
2018-09-03T23:26:49.279Z,90.90
2018-09-03T23:29:28.876Z,91.10
2018-09-03T23:32:05.693Z,91.20
2018-09-03T23:34:43.578Z,90.70
2018-09-03T23:37:23.140Z,91.00
2018-09-03T23:40:00.353Z,91.30
2018-09-03T23:42:40.440Z,90.90
2018-09-03T23:48:09.646Z,91.70
2018-09-03T23:50:50.367Z,91.70
2018-09-03T23:53:31.766Z,91.40
2018-09-03T23:56:14.151Z,91.60
2018-09-03T23:58:54.085Z,91.40
